Resums METAR propers

 

LEGE - Gerona/Costa Bra, Spain
Distància des de l'estació: S 12km
Actualització: 31/01/2023 01:30
Seré
Seré
 Vent del N
Vent: N 11 km/h
Temperatura: 41°F , 5°C
Sensació: 36°F , 2°C
Rosada: 28°F , -2°C
Humitat: 61%
Baròmetre: 1025 hPa
Resum: Seré
Visibilitat: major de 10 km
2023/01/31 00:30 LEGE 310030Z 36006KT 320V040 CAVOK 05/M02 Q1025